Terminal Aerodrome Forecast
Issued by NWS

Home | Current Version | Previous Version | Text Only | Print | Product List | Glossary On
Versions: 1 2 3 4 5 6 7 8 9 10 11 12 13 14 15 16
000
FTUS44 KLZK 181700
TAFADF
TAF
KADF 181740Z 1818/1918 08006KT P6SM BKN025 OVC040
      TEMPO 1818/1822 3SM TSRA BR OVC015CB
     FM182200 09006KT 5SM SHRA BR OVC040
      TEMPO 1822/1902 2SM TSRA BR OVC025CB
     FM190200 08004KT 5SM BR BKN040
     FM191200 24003KT P6SM VCSH BKN040 PROB30 1912/1918 3SM TSRA BR
      OVC025CB=

USA.gov is the U.S. government's official web portal to all federal, state and local government web resources and services.